Time;durP1;ratioP1;P1;durP2;ratioP2;P2;SDS_P1;SDS_P2;PMS_P1;PMS_P2;Temp;Humidity;BMP_temperature;BMP_pressure;BME280_temperature;BME280_humidity;BME280_pressure;Samples;Min_cycle;Max_cycle;Signal;HPM_P1;HPM_P2
2021/05/08 00:00:40;;;;;;;9.25;2.33;;;;;;;2.71;99.81;100721.19;5095823;28;20035;-82
2021/05/08 00:03:14;;;;;;;12.07;2.70;;;;;;;2.63;100.00;100722.78;5095389;28;20021;-82
2021/05/08 00:05:48;;;;;;;12.48;2.72;;;;;;;2.55;100.00;100735.44;5095672;28;20038;-82
2021/05/08 00:08:14;;;;;;;12.93;2.35;;;;;;;2.57;100.00;100727.81;5077523;28;20027;-82
2021/05/08 00:10:40;;;;;;;13.77;2.60;;;;;;;2.64;100.00;100729.63;5077453;28;20079;-82
2021/05/08 00:13:14;;;;;;;12.70;2.55;;;;;;;2.62;100.00;100726.19;5081244;28;20032;-82
2021/05/08 00:15:48;;;;;;;13.50;2.93;;;;;;;2.53;100.00;100730.31;5082585;28;20511;-82
2021/05/08 00:18:19;;;;;;;9.15;2.55;;;;;;;2.48;100.00;100729.38;5082187;28;20454;-82
2021/05/08 00:20:45;;;;;;;9.15;2.35;;;;;;;2.51;100.00;100729.41;5107824;22;20077;-83
2021/05/08 00:23:10;;;;;;;12.07;3.42;;;;;;;2.49;100.00;100727.66;5124309;28;20383;-82
2021/05/08 00:25:35;;;;;;;16.27;4.10;;;;;;;2.49;100.00;100722.53;5124889;28;20019;-83
2021/05/08 00:28:00;;;;;;;13.75;2.95;;;;;;;2.49;100.00;100725.09;5124918;28;20027;-82
2021/05/08 00:30:26;;;;;;;11.70;2.70;;;;;;;2.44;100.00;100717.34;5123690;28;20027;-82
2021/05/08 00:32:51;;;;;;;10.63;2.30;;;;;;;2.47;100.00;100719.97;5123658;28;20019;-82
2021/05/08 00:35:16;;;;;;;14.50;3.35;;;;;;;2.45;100.00;100719.06;5124924;28;20031;-82
2021/05/08 00:37:43;;;;;;;10.48;2.38;;;;;;;2.55;100.00;100720.09;5124232;28;20028;-83
2021/05/08 00:40:09;;;;;;;11.82;2.40;;;;;;;2.45;100.00;100719.06;5125293;28;20046;-83
2021/05/08 00:42:34;;;;;;;14.43;2.60;;;;;;;2.46;100.00;100719.94;5123647;28;20046;-83
2021/05/08 00:45:00;;;;;;;9.75;2.30;;;;;;;2.39;100.00;100713.00;5124883;28;20479;-83
2021/05/08 00:47:25;;;;;;;8.70;2.47;;;;;;;2.31;100.00;100710.31;5123093;28;20099;-83
2021/05/08 00:49:50;;;;;;;11.52;2.55;;;;;;;2.23;100.00;100707.59;5123747;28;20495;-82
2021/05/08 00:52:16;;;;;;;14.98;3.15;;;;;;;2.33;100.00;100708.63;5122851;28;20024;-83
2021/05/08 00:54:42;;;;;;;12.43;2.75;;;;;;;2.33;100.00;100706.06;5123185;28;20019;-83
2021/05/08 00:57:08;;;;;;;10.45;2.58;;;;;;;2.27;100.00;100703.38;5122869;28;20475;-83
2021/05/08 00:59:35;;;;;;;17.10;3.55;;;;;;;2.28;100.00;100705.13;5124372;28;20049;-83
2021/05/08 01:02:01;;;;;;;13.50;3.15;;;;;;;2.22;100.00;100716.13;5124681;28;20023;-83
2021/05/08 01:04:27;;;;;;;11.38;2.70;;;;;;;2.28;100.00;100715.38;5122131;28;20020;-83
2021/05/08 01:06:53;;;;;;;11.65;2.70;;;;;;;2.22;100.00;100702.47;5122501;28;20023;-83
2021/05/08 01:09:19;;;;;;;10.68;2.70;;;;;;;2.23;100.00;100710.16;5123487;27;20035;-83
2021/05/08 01:11:44;;;;;;;16.23;2.50;;;;;;;2.20;100.00;100710.09;5122296;28;20027;-83
2021/05/08 01:14:10;;;;;;;14.32;2.78;;;;;;;2.19;100.00;100717.75;5122311;28;20019;-83
2021/05/08 01:16:35;;;;;;;11.68;2.88;;;;;;;2.24;100.00;100716.13;5122345;28;20023;-83
2021/05/08 01:19:00;;;;;;;16.38;2.85;;;;;;;2.25;100.00;100715.31;5121783;28;20028;-83
2021/05/08 01:21:26;;;;;;;10.18;3.40;;;;;;;2.14;100.00;100714.25;5123020;28;20027;-83
2021/05/08 01:23:51;;;;;;;16.75;2.83;;;;;;;2.12;100.00;100713.34;5121616;28;20024;-84
2021/05/08 01:26:18;;;;;;;13.63;2.97;;;;;;;2.15;100.00;100713.41;5121551;28;20055;-83
2021/05/08 01:28:44;;;;;;;14.15;2.55;;;;;;;2.16;100.00;100723.69;5121653;28;20492;-83
2021/05/08 01:31:10;;;;;;;11.32;3.03;;;;;;;2.18;100.00;100724.56;5123378;28;20034;-82
2021/05/08 01:33:36;;;;;;;12.05;2.72;;;;;;;2.20;100.00;100722.03;5121750;28;20049;-82
2021/05/08 01:36:02;;;;;;;17.02;2.88;;;;;;;2.17;100.00;100721.97;5121829;28;20388;-83
2021/05/08 01:38:28;;;;;;;17.10;2.80;;;;;;;2.27;100.00;100726.41;5121502;28;20103;-83
2021/05/08 01:41:02;;;;;;;15.88;2.80;;;;;;;2.27;100.00;100722.16;5121380;28;20468;-83
2021/05/08 01:43:28;;;;;;;20.80;3.47;;;;;;;2.25;100.00;100720.44;5122408;28;20028;-83
2021/05/08 01:45:54;;;;;;;14.30;2.75;;;;;;;2.24;100.00;100728.94;5121250;28;20031;-83
2021/05/08 01:48:19;;;;;;;12.23;2.97;;;;;;;2.18;100.00;100728.81;5120642;28;20111;-83
2021/05/08 01:50:45;;;;;;;16.95;3.35;;;;;;;2.11;100.00;100732.97;5120716;28;20063;-82
2021/05/08 01:53:10;;;;;;;17.20;2.70;;;;;;;2.06;100.00;100730.31;5122025;28;20023;-83
2021/05/08 01:55:35;;;;;;;13.18;2.80;;;;;;;2.13;100.00;100727.88;5121431;28;20063;-83
2021/05/08 01:58:01;;;;;;;13.85;2.75;;;;;;;2.16;100.00;100733.06;5120967;28;20480;-83
2021/05/08 02:00:32;;;;;;;9.43;2.72;;;;;;;2.17;100.00;100732.22;5122107;28;20093;-83
2021/05/08 02:02:58;;;;;;;14.48;3.05;;;;;;;2.15;100.00;100729.63;5131454;28;20011;-82
2021/05/08 02:05:28;;;;;;;14.45;2.80;;;;;;;2.10;100.00;100731.25;5136507;28;20007;-82
2021/05/08 02:07:54;;;;;;;9.13;2.88;;;;;;;2.12;100.00;100733.81;5117659;28;20030;-84
2021/05/08 02:10:19;;;;;;;10.27;3.05;;;;;;;2.05;100.00;100738.81;5119809;28;20023;-83
2021/05/08 02:12:45;;;;;;;13.93;2.83;;;;;;;2.09;100.00;100734.59;5119493;28;20025;-83
2021/05/08 02:15:13;;;;;;;11.30;2.55;;;;;;;2.10;100.00;100732.94;5121025;28;20023;-84
2021/05/08 02:17:39;;;;;;;14.90;3.65;;;;;;;2.12;100.00;100728.69;5123477;28;20023;-83
2021/05/08 02:20:10;;;;;;;11.00;2.88;;;;;;;2.14;100.00;100730.44;5121439;28;20588;-83
2021/05/08 02:22:36;;;;;;;17.25;2.92;;;;;;;2.19;100.00;100720.31;5121578;28;20020;-83
2021/05/08 02:25:04;;;;;;;12.13;2.63;;;;;;;2.11;100.00;100720.16;5122643;28;20038;-84
2021/05/08 02:27:29;;;;;;;10.40;2.50;;;;;;;2.07;100.00;100729.47;5122697;28;20395;-83
2021/05/08 02:29:54;;;;;;;12.23;2.55;;;;;;;2.12;100.00;100733.81;5121563;28;20042;-83
2021/05/08 02:32:19;;;;;;;19.55;3.15;;;;;;;2.13;100.00;100730.44;5120835;28;20055;-83
2021/05/08 02:34:45;;;;;;;11.95;2.97;;;;;;;2.10;100.00;100726.13;5120636;28;20023;-83
2021/05/08 02:37:10;;;;;;;16.25;3.53;;;;;;;2.13;100.00;100730.44;5121061;28;20070;-83
2021/05/08 02:39:35;;;;;;;14.27;2.70;;;;;;;2.03;100.00;100730.28;5121508;28;20110;-83
2021/05/08 02:42:01;;;;;;;13.10;3.08;;;;;;;2.01;100.00;100731.91;5121358;28;20023;-83
2021/05/08 02:44:26;;;;;;;20.30;3.80;;;;;;;2.04;100.00;100737.09;5121120;28;20019;-83
2021/05/08 02:46:51;;;;;;;10.95;2.97;;;;;;;1.96;100.00;100732.66;5121389;28;20039;-83
2021/05/08 02:49:16;;;;;;;9.68;3.13;;;;;;;2.12;100.00;100736.38;5123197;28;20373;-83
2021/05/08 02:51:42;;;;;;;14.25;3.30;;;;;;;2.01;100.00;100734.47;5120930;28;20027;-83
2021/05/08 02:54:07;;;;;;;14.00;2.67;;;;;;;1.98;100.00;100734.41;5120282;28;20399;-83
2021/05/08 02:56:32;;;;;;;15.68;3.00;;;;;;;1.93;100.00;100736.03;5121260;28;20479;-83
2021/05/08 02:58:58;;;;;;;11.93;2.97;;;;;;;2.05;100.00;100738.81;5121408;28;20046;-84
2021/05/08 03:01:23;;;;;;;15.93;3.25;;;;;;;1.94;100.00;100740.31;5120874;28;20073;-83
2021/05/08 03:03:48;;;;;;;14.90;3.03;;;;;;;1.92;100.00;100736.84;5120424;28;20106;-83
2021/05/08 03:06:13;;;;;;;13.85;3.13;;;;;;;1.93;100.00;100735.16;5121825;28;20110;-83
2021/05/08 03:08:39;;;;;;;14.30;3.63;;;;;;;2.02;100.00;100733.63;5120683;28;20038;-83
2021/05/08 03:11:04;;;;;;;11.30;3.50;;;;;;;1.87;100.00;100730.78;5120424;28;20555;-83
2021/05/08 03:13:29;;;;;;;10.23;3.63;;;;;;;1.91;100.00;100726.59;5121835;28;20035;-83
2021/05/08 03:15:55;;;;;;;13.20;4.07;;;;;;;1.92;100.00;100723.22;5120774;28;20493;-84
2021/05/08 03:18:20;;;;;;;11.70;3.00;;;;;;;1.97;100.00;100727.59;5120585;28;20054;-83
2021/05/08 03:20:45;;;;;;;13.48;2.90;;;;;;;2.05;100.00;100732.84;5119719;28;20028;-83
2021/05/08 03:23:11;;;;;;;15.30;3.00;;;;;;;1.93;100.00;100728.34;5120644;28;20383;-82
2021/05/08 03:25:36;;;;;;;9.98;3.03;;;;;;;1.88;100.00;100734.19;5120614;28;20039;-84
2021/05/08 03:28:01;;;;;;;11.52;3.33;;;;;;;1.86;100.00;100723.09;5120215;28;20023;-83
2021/05/08 03:30:27;;;;;;;16.85;3.58;;;;;;;1.86;100.00;100723.09;5121576;28;20110;-82
2021/05/08 03:32:52;;;;;;;12.13;3.45;;;;;;;1.72;100.00;100730.47;5121713;28;20039;-82
2021/05/08 03:35:17;;;;;;;15.57;3.53;;;;;;;1.84;100.00;100723.91;5120805;28;20070;-82
2021/05/08 03:37:42;;;;;;;13.52;3.00;;;;;;;1.87;100.00;100715.44;5121748;28;20476;-83
2021/05/08 03:40:08;;;;;;;10.82;3.20;;;;;;;1.94;100.00;100724.97;5120055;28;20047;-83
2021/05/08 03:42:33;;;;;;;12.25;2.70;;;;;;;1.94;100.00;100719.84;5120460;28;20015;-82
2021/05/08 03:44:59;;;;;;;10.70;3.50;;;;;;;1.91;100.00;100724.91;5120375;28;20031;-82
2021/05/08 03:47:24;;;;;;;13.40;3.33;;;;;;;1.93;100.00;100723.22;5126829;28;20139;-83
2021/05/08 03:49:49;;;;;;;11.93;3.60;;;;;;;1.92;100.00;100734.31;5130027;28;20077;-83
2021/05/08 03:52:14;;;;;;;14.85;3.70;;;;;;;1.91;100.00;100730.03;5132189;28;20027;-83
2021/05/08 03:54:40;;;;;;;16.17;3.50;;;;;;;1.98;100.00;100736.13;5130641;28;20083;-83
2021/05/08 03:57:05;;;;;;;16.05;3.40;;;;;;;1.97;100.00;100730.16;5131958;28;20027;-83
2021/05/08 03:59:31;;;;;;;10.98;3.72;;;;;;;2.10;100.00;100732.94;5130508;28;20023;-83
2021/05/08 04:01:56;;;;;;;14.10;3.65;;;;;;;2.11;100.00;100735.50;5130403;28;20034;-83
2021/05/08 04:04:22;;;;;;;11.95;3.85;;;;;;;2.18;100.00;100733.94;5130325;28;20065;-83
2021/05/08 04:06:47;;;;;;;14.68;3.65;;;;;;;2.13;100.00;100738.97;5129607;28;20027;-83
2021/05/08 04:09:12;;;;;;;15.45;4.15;;;;;;;2.18;100.00;100741.59;5131280;28;20476;-83
2021/05/08 04:11:38;;;;;;;13.77;3.70;;;;;;;2.23;100.00;100747.69;5129666;28;20023;-83
2021/05/08 04:14:04;;;;;;;17.83;5.10;;;;;;;2.27;100.00;100744.34;5128732;28;20065;-83
2021/05/08 04:16:31;;;;;;;15.40;4.65;;;;;;;2.36;100.00;100743.66;5129245;28;20022;-83
2021/05/08 04:18:56;;;;;;;15.20;4.05;;;;;;;2.36;100.00;100746.22;5130804;27;20027;-83
2021/05/08 04:21:22;;;;;;;16.48;3.78;;;;;;;2.42;100.00;100746.31;5129256;28;20020;-83
2021/05/08 04:23:47;;;;;;;16.20;3.72;;;;;;;2.37;100.00;100743.69;5128985;28;20043;-83
2021/05/08 04:26:12;;;;;;;17.02;5.60;;;;;;;2.50;100.00;100750.75;5128701;28;20063;-83
2021/05/08 04:28:38;;;;;;;9.63;3.33;;;;;;;2.54;100.00;100751.66;5127695;28;20023;-82
2021/05/08 04:31:03;;;;;;;15.88;4.55;;;;;;;2.64;100.00;100755.22;5127922;28;20160;-83
2021/05/08 04:33:28;;;;;;;12.77;3.97;;;;;;;2.71;100.00;100757.06;5131055;28;20037;-83
2021/05/08 04:35:53;;;;;;;9.88;3.60;;;;;;;2.76;100.00;100753.72;5143945;28;20039;-81
2021/05/08 04:38:19;;;;;;;12.48;4.13;;;;;;;2.83;100.00;100756.41;5132999;27;20027;-82
2021/05/08 04:40:44;;;;;;;12.40;4.05;;;;;;;2.98;100.00;100760.06;5124066;28;20291;-82
2021/05/08 04:43:09;;;;;;;11.43;4.10;;;;;;;3.06;100.00;100759.34;5125679;28;20024;-82
2021/05/08 04:45:35;;;;;;;12.18;3.85;;;;;;;3.09;100.00;100759.41;5125917;28;20046;-83
2021/05/08 04:48:01;;;;;;;14.18;4.57;;;;;;;3.18;100.00;100764.66;5124955;28;20027;-83
2021/05/08 04:50:27;;;;;;;15.70;5.10;;;;;;;3.26;100.00;100762.19;5126701;27;20019;-83
2021/05/08 04:52:53;;;;;;;12.98;3.70;;;;;;;3.32;100.00;100765.69;5127039;27;20541;-83
2021/05/08 04:55:19;;;;;;;14.77;4.20;;;;;;;3.38;100.00;100762.38;5125964;28;20058;-83
2021/05/08 04:57:44;;;;;;;15.05;4.57;;;;;;;3.40;100.00;100763.25;5124499;27;20031;-82
2021/05/08 05:00:12;;;;;;;15.98;3.90;;;;;;;3.52;100.00;100766.00;5122902;28;20097;-83
2021/05/08 05:02:37;;;;;;;10.68;3.75;;;;;;;3.87;100.00;100763.03;5122448;28;20068;-82
2021/05/08 05:05:03;;;;;;;15.45;4.30;;;;;;;4.17;98.44;100764.25;5123218;28;20020;-82
2021/05/08 05:07:29;;;;;;;10.90;4.30;;;;;;;4.47;96.13;100759.44;5122826;28;20104;-82
2021/05/08 05:09:54;;;;;;;12.80;3.88;;;;;;;5.06;92.68;100766.78;5123640;28;20038;-82
2021/05/08 05:12:19;;;;;;;12.25;3.33;;;;;;;5.20;91.08;100766.91;5123788;28;20050;-82
2021/05/08 05:14:44;;;;;;;9.93;4.00;;;;;;;5.28;90.65;100775.50;5122120;28;20028;-82
2021/05/08 05:17:10;;;;;;;10.15;3.50;;;;;;;5.50;88.98;100773.09;5121480;28;20030;-82
2021/05/08 05:19:35;;;;;;;10.45;4.00;;;;;;;5.94;87.06;100773.34;5122476;28;20091;-82
2021/05/08 05:22:00;;;;;;;14.20;4.25;;;;;;;6.20;84.85;100770.84;5121813;28;20069;-82
2021/05/08 05:24:25;;;;;;;10.23;3.72;;;;;;;6.54;83.20;100776.09;5122339;28;20087;-82
2021/05/08 05:26:51;;;;;;;15.98;4.30;;;;;;;6.79;82.34;100781.28;5122031;28;20019;-82
2021/05/08 05:29:16;;;;;;;11.82;3.60;;;;;;;7.09;82.22;100780.44;5122305;28;20020;-82
2021/05/08 05:31:41;;;;;;;12.48;4.10;;;;;;;7.23;80.17;100772.66;5125021;28;20023;-83
2021/05/08 05:34:07;;;;;;;10.15;3.25;;;;;;;7.24;79.17;100780.44;5123522;28;20019;-83
2021/05/08 05:36:32;;;;;;;13.90;3.38;;;;;;;7.50;77.32;100771.78;5123086;28;20027;-83
2021/05/08 05:38:59;;;;;;;10.85;3.83;;;;;;;7.61;78.14;100776.06;5122716;28;20047;-83
2021/05/08 05:41:24;;;;;;;10.85;3.40;;;;;;;8.03;76.89;100770.72;5121783;28;20024;-82
2021/05/08 05:43:50;;;;;;;11.13;3.08;;;;;;;7.97;74.64;100778.50;5121443;28;20027;-83
2021/05/08 05:46:15;;;;;;;12.98;4.18;;;;;;;8.02;74.82;100779.34;5121988;28;20032;-83
2021/05/08 05:48:40;;;;;;;19.42;3.60;;;;;;;7.98;73.91;100783.69;5121182;28;20016;-83
2021/05/08 05:51:07;;;;;;;14.02;3.08;;;;;;;7.83;75.18;100787.16;5120930;28;20042;-83
2021/05/08 05:53:33;;;;;;;17.25;3.20;;;;;;;8.61;72.89;100785.09;5122103;28;20629;-82
2021/05/08 05:55:58;;;;;;;14.13;3.60;;;;;;;8.49;72.88;100789.47;5122236;28;20051;-82
2021/05/08 05:58:23;;;;;;;10.98;3.20;;;;;;;7.83;75.05;100786.31;5121466;28;20080;-83
2021/05/08 06:00:49;;;;;;;14.60;3.42;;;;;;;8.30;72.53;100787.84;5120556;28;20020;-83
2021/05/08 06:03:14;;;;;;;11.77;2.90;;;;;;;8.29;72.40;100786.13;5122562;28;20023;-83
2021/05/08 06:05:39;;;;;;;19.08;3.78;;;;;;;8.68;72.54;100785.06;5121027;28;20491;-83
2021/05/08 06:08:04;;;;;;;15.13;3.78;;;;;;;8.41;71.61;100793.00;5120131;28;20027;-83
2021/05/08 06:10:30;;;;;;;16.70;3.75;;;;;;;8.85;71.63;100797.00;5121031;28;20069;-84
2021/05/08 06:12:55;;;;;;;9.85;3.00;;;;;;;9.20;70.71;100794.97;5124621;28;20034;-83
2021/05/08 06:15:20;;;;;;;11.40;2.58;;;;;;;9.09;70.51;100798.56;5124584;28;20069;-83
2021/05/08 06:17:45;;;;;;;9.90;2.70;;;;;;;9.32;71.44;100794.00;5123485;28;20019;-83
2021/05/08 06:20:11;;;;;;;12.85;2.85;;;;;;;9.15;69.24;100796.75;5124343;28;20038;-83
2021/05/08 06:22:37;;;;;;;10.45;2.95;;;;;;;9.73;69.29;100797.06;5126510;22;20436;-80
2021/05/08 06:25:03;;;;;;;9.23;2.60;;;;;;;9.67;68.12;100800.59;5097560;28;20020;-81
2021/05/08 06:27:28;;;;;;;11.25;3.58;;;;;;;9.36;69.45;100808.66;5096024;28;20020;-82
2021/05/08 06:29:54;;;;;;;12.95;3.85;;;;;;;9.17;69.25;100812.25;5098129;28;20020;-82
2021/05/08 06:32:19;;;;;;;15.90;3.03;;;;;;;9.75;68.71;100806.53;5098044;28;20512;-82
2021/05/08 06:34:44;;;;;;;10.43;2.70;;;;;;;9.83;66.89;100809.06;5100045;28;20024;-80
2021/05/08 06:37:19;;;;;;;10.10;2.92;;;;;;;9.71;66.88;100807.44;5098606;28;20032;-80
2021/05/08 06:39:50;;;;;;;13.55;3.53;;;;;;;10.11;68.78;100807.00;5098096;28;20054;-81
2021/05/08 06:42:15;;;;;;;13.90;3.05;;;;;;;9.53;65.68;100805.91;5099054;28;20047;-83
2021/05/08 06:44:40;;;;;;;11.93;2.80;;;;;;;9.95;65.96;100806.31;5099617;28;20031;-83
2021/05/08 06:47:14;;;;;;;13.90;3.45;;;;;;;10.23;66.58;100800.81;5097896;28;20039;-83
2021/05/08 06:49:41;;;;;;;11.05;2.95;;;;;;;10.65;64.61;100804.53;5099183;28;20020;-83
2021/05/08 06:52:07;;;;;;;12.73;2.90;;;;;;;10.55;63.99;100809.00;5098627;28;20563;-83
2021/05/08 06:54:32;;;;;;;15.18;3.22;;;;;;;10.78;63.03;100815.63;5097804;28;20047;-83
2021/05/08 06:56:57;;;;;;;15.73;3.03;;;;;;;10.26;64.67;100813.72;5097570;28;20525;-83
2021/05/08 06:59:22;;;;;;;12.93;2.65;;;;;;;10.92;63.37;100818.84;5096759;28;20031;-83
2021/05/08 07:01:48;;;;;;;11.57;2.70;;;;;;;11.48;61.30;100818.78;5098065;28;20135;-83
2021/05/08 07:04:18;;;;;;;13.95;2.85;;;;;;;10.27;61.98;100820.66;5098003;28;20050;-83
2021/05/08 07:06:47;;;;;;;17.75;2.60;;;;;;;11.29;60.74;100819.09;5097224;28;20584;-83
2021/05/08 07:09:12;;;;;;;13.45;2.70;;;;;;;11.87;59.26;100808.59;5097930;28;20024;-82
2021/05/08 07:11:38;;;;;;;9.13;2.20;;;;;;;10.02;63.52;100813.13;5096202;28;20020;-81
2021/05/08 07:14:03;;;;;;;13.43;2.30;;;;;;;11.57;60.76;100813.44;5097793;28;20372;-81
2021/05/08 07:16:29;;;;;;;13.15;2.58;;;;;;;12.40;59.97;100811.81;5098737;28;20365;-81
2021/05/08 07:18:54;;;;;;;9.30;2.20;;;;;;;12.19;55.06;100801.00;5097071;28;20024;-82
2021/05/08 07:21:23;;;;;;;12.35;2.45;;;;;;;12.15;56.07;100803.69;5097834;28;20024;-81
2021/05/08 07:23:48;;;;;;;10.98;2.40;;;;;;;11.52;56.99;100810.06;5096800;28;20023;-82
2021/05/08 07:26:14;;;;;;;7.90;2.25;;;;;;;11.86;57.64;100809.47;5097541;28;20031;-81
2021/05/08 07:28:39;;;;;;;9.90;2.13;;;;;;;12.12;56.29;100807.19;5098080;28;20030;-83
2021/05/08 07:31:04;;;;;;;11.35;2.05;;;;;;;12.61;54.65;100800.94;5098151;28;20024;-81
2021/05/08 07:33:29;;;;;;;10.45;2.10;;;;;;;13.08;53.14;100804.19;5098549;28;20020;-81
2021/05/08 07:35:55;;;;;;;8.60;2.15;;;;;;;12.62;53.01;100805.25;5100848;28;20464;-81
2021/05/08 07:38:20;;;;;;;15.98;2.55;;;;;;;12.75;53.46;100804.97;5101347;28;20117;-81
2021/05/08 07:40:50;;;;;;;15.25;2.88;;;;;;;12.90;55.58;100804.63;5098472;28;20024;-81
2021/05/08 07:43:23;;;;;;;12.52;2.38;;;;;;;13.14;51.16;100804.00;5100292;28;20024;-81
2021/05/08 07:45:49;;;;;;;10.90;2.42;;;;;;;12.37;55.36;100804.06;5099666;28;20031;-81
2021/05/08 07:48:30;;;;;;;10.20;1.98;;;;;;;11.37;52.77;100800.81;5097479;28;20348;-81
2021/05/08 07:50:56;;;;;;;7.95;1.85;;;;;;;10.63;55.81;100795.94;5098250;28;20040;-81
2021/05/08 07:53:21;;;;;;;11.10;2.08;;;;;;;11.45;51.79;100796.34;5099139;28;20059;-81
2021/05/08 07:55:47;;;;;;;8.27;2.20;;;;;;;11.65;51.18;100795.97;5099189;28;20028;-81
2021/05/08 07:58:12;;;;;;;11.63;2.03;;;;;;;11.56;52.95;100787.50;5099810;28;20075;-80
2021/05/08 08:00:37;;;;;;;9.13;1.80;;;;;;;13.72;51.15;100777.34;5099110;28;20403;-81
2021/05/08 08:03:06;;;;;;;12.00;1.80;;;;;;;13.84;48.30;100781.38;5096724;28;20468;-81
2021/05/08 08:05:31;;;;;;;8.32;1.75;;;;;;;13.04;47.48;100779.09;5097329;28;20123;-81
2021/05/08 08:08:05;;;;;;;10.82;1.95;;;;;;;13.20;49.30;100783.91;5098732;28;20108;-81
2021/05/08 08:10:31;;;;;;;8.32;1.98;;;;;;;13.45;47.79;100784.16;5098594;28;20027;-81
2021/05/08 08:12:56;;;;;;;8.90;1.70;;;;;;;12.67;48.26;100779.97;5098846;28;20028;-81
2021/05/08 08:15:21;;;;;;;8.55;1.88;;;;;;;12.14;47.91;100776.81;5096778;28;20051;-82
2021/05/08 08:17:47;;;;;;;5.75;1.55;;;;;;;12.98;47.33;100774.03;5098382;28;20035;-81
2021/05/08 08:20:14;;;;;;;9.20;2.17;;;;;;;13.18;48.75;100770.94;5099957;28;20019;-81
2021/05/08 08:22:46;;;;;;;7.78;1.90;;;;;;;12.88;47.79;100775.16;5098940;28;20506;-81
2021/05/08 08:25:13;;;;;;;9.10;1.75;;;;;;;12.99;48.26;100775.75;5098897;28;20081;-81
2021/05/08 08:27:42;;;;;;;6.25;1.50;;;;;;;14.04;46.16;100779.06;5097275;28;20480;-81
2021/05/08 08:30:10;;;;;;;8.40;1.92;;;;;;;14.77;45.44;100786.41;5096699;28;20023;-82
2021/05/08 08:32:36;;;;;;;7.72;1.98;;;;;;;14.28;46.43;100775.72;5099077;28;20090;-82
2021/05/08 08:35:01;;;;;;;8.63;2.10;;;;;;;13.41;45.46;100787.75;5100318;28;20020;-82
2021/05/08 08:37:26;;;;;;;6.88;2.00;;;;;;;13.77;44.08;100781.53;5100827;28;20055;-82
2021/05/08 08:39:52;;;;;;;8.40;2.33;;;;;;;13.86;43.35;100777.84;5103101;28;20452;-81
2021/05/08 08:42:17;;;;;;;7.50;1.80;;;;;;;15.05;43.21;100775.91;5101495;28;20028;-82
2021/05/08 08:44:42;;;;;;;8.02;1.67;;;;;;;13.82;46.49;100778.78;5101353;28;20012;-81
2021/05/08 08:49:55;;;;;;;10.00;1.47;;;;;;;12.52;45.07;100777.72;5101955;28;20050;-82
2021/05/08 08:52:20;;;;;;;4.65;1.40;;;;;;;13.35;46.30;100778.34;5099010;28;20023;-82
2021/05/08 08:54:45;;;;;;;5.57;1.65;;;;;;;13.00;47.20;100781.81;5098227;28;20547;-81
2021/05/08 08:57:12;;;;;;;7.40;1.90;;;;;;;13.80;45.35;100778.00;5098845;28;20050;-81
2021/05/08 08:59:48;;;;;;;6.05;1.58;;;;;;;13.34;45.31;100779.25;5100711;28;20020;-81
2021/05/08 09:02:14;;;;;;;10.45;1.60;;;;;;;12.45;46.98;100783.97;5099137;28;20112;-81
2021/05/08 09:04:39;;;;;;;7.53;1.63;;;;;;;12.30;48.16;100786.91;5098005;28;20052;-81
2021/05/08 09:07:05;;;;;;;7.18;1.33;;;;;;;13.10;46.67;100784.13;5098146;28;20070;-81
2021/05/08 09:09:31;;;;;;;6.72;1.98;;;;;;;12.89;46.68;100779.47;5099748;28;20031;-81
2021/05/08 09:11:56;;;;;;;9.18;1.98;;;;;;;12.12;45.28;100776.00;5097997;28;20026;-81
2021/05/08 09:14:30;;;;;;;10.13;2.03;;;;;;;12.60;47.03;100773.22;5098763;28;20077;-81
2021/05/08 09:17:25;;;;;;;7.43;1.80;;;;;;;13.15;45.43;100781.44;5098757;28;20432;-82
2021/05/08 09:19:58;;;;;;;8.15;1.83;;;;;;;12.94;47.43;100776.75;5093945;28;20036;-81
2021/05/08 09:22:28;;;;;;;7.40;2.03;;;;;;;12.41;47.40;100764.13;5099417;28;20032;-81
2021/05/08 09:25:16;;;;;;;6.20;1.60;;;;;;;12.74;45.58;100767.66;5101586;28;20027;-81
2021/05/08 09:27:45;;;;;;;6.70;1.70;;;;;;;13.31;44.49;100755.88;5099332;28;20511;-81
2021/05/08 09:30:24;;;;;;;7.47;1.42;;;;;;;13.67;45.33;100753.16;5097141;28;20032;-81
2021/05/08 09:33:08;;;;;;;9.43;2.28;;;;;;;13.59;44.60;100750.78;5097335;28;20020;-81
2021/05/08 09:35:35;;;;;;;;;;;;;;;14.08;42.59;100738.09;5098063;28;20028;-81
2021/05/08 09:38:08;;;;;;;6.43;1.63;;;;;;;12.74;47.07;100744.25;5096777;28;20281;-81
2021/05/08 09:40:35;;;;;;;8.30;1.67;;;;;;;13.34;46.49;100734.97;5098540;28;20043;-81
2021/05/08 09:43:00;;;;;;;7.72;1.80;;;;;;;14.26;42.72;100730.56;5098035;28;20354;-81
2021/05/08 09:45:27;;;;;;;7.35;1.63;;;;;;;15.02;40.86;100728.16;5098411;28;20081;-81
2021/05/08 09:47:53;;;;;;;8.20;1.88;;;;;;;15.12;38.54;100726.97;5097204;28;20028;-81
2021/05/08 09:50:21;;;;;;;8.35;1.92;;;;;;;14.79;40.21;100728.94;5098017;28;20493;-81
2021/05/08 09:52:55;;;;;;;5.43;2.00;;;;;;;13.65;42.93;100736.72;5097086;28;20472;-81
2021/05/08 09:55:22;;;;;;;8.25;2.25;;;;;;;14.43;42.80;100732.63;5096973;28;20097;-81
2021/05/08 09:57:56;;;;;;;8.27;2.40;;;;;;;15.73;38.72;100722.16;5098177;28;20082;-81
2021/05/08 10:00:33;;;;;;;6.10;1.90;;;;;;;14.89;39.55;100725.97;5096347;28;20023;-81
2021/05/08 10:03:13;;;;;;;8.43;1.60;;;;;;;16.43;38.09;100718.59;5095977;28;20031;-80
2021/05/08 10:05:46;;;;;;;6.57;1.80;;;;;;;14.66;42.66;100724.13;5097665;28;20024;-80
2021/05/08 10:08:20;;;;;;;5.00;1.70;;;;;;;15.02;41.74;100722.94;5097865;28;20027;-81
2021/05/08 10:10:45;;;;;;;8.02;2.88;;;;;;;15.17;40.87;100718.03;5097412;28;20270;-80
2021/05/08 10:13:12;;;;;;;8.32;2.58;;;;;;;16.43;38.38;100712.53;5098310;28;20028;-80
2021/05/08 10:15:41;;;;;;;6.15;1.75;;;;;;;15.72;38.93;100710.00;5098649;28;20020;-81
2021/05/08 10:18:13;;;;;;;6.68;2.13;;;;;;;14.63;41.45;100713.78;5097720;28;20020;-81
2021/05/08 10:20:40;;;;;;;7.72;2.53;;;;;;;13.78;42.68;100710.25;5098834;28;20100;-81
2021/05/08 10:23:13;;;;;;;6.70;2.30;;;;;;;15.24;40.14;100705.63;5097996;28;20031;-81
2021/05/08 10:25:43;;;;;;;8.48;2.15;;;;;;;14.60;41.06;100713.03;5096784;28;20034;-81
2021/05/08 10:28:11;;;;;;;7.13;2.42;;;;;;;13.31;43.24;100709.00;5096042;28;20074;-80
2021/05/08 10:30:40;;;;;;;9.32;2.65;;;;;;;12.75;44.56;100714.75;5096083;28;20047;-80
2021/05/08 10:33:16;;;;;;;6.68;1.92;;;;;;;14.62;42.21;100713.81;5094136;28;20058;-80
2021/05/08 10:35:41;;;;;;;7.97;2.60;;;;;;;15.74;38.87;100702.13;5094547;28;20091;-80
2021/05/08 10:38:30;;;;;;;8.88;2.47;;;;;;;14.41;36.74;100694.44;5096567;28;20059;-81
2021/05/08 10:40:59;;;;;;;7.38;2.58;;;;;;;13.64;38.90;100694.19;5096252;28;20024;-80
2021/05/08 10:43:35;;;;;;;10.77;2.55;;;;;;;14.61;39.82;100688.63;5094572;28;20023;-80
2021/05/08 10:46:00;;;;;;;8.70;2.35;;;;;;;15.62;37.94;100688.56;5096509;28;20024;-80
2021/05/08 10:48:31;;;;;;;6.80;2.03;;;;;;;14.68;36.96;100687.50;5095429;28;20065;-80
2021/05/08 10:51:04;;;;;;;6.72;2.35;;;;;;;14.66;39.26;100684.13;5095941;28;20035;-81
2021/05/08 10:53:43;;;;;;;9.45;2.38;;;;;;;15.35;36.58;100681.72;5096081;28;20511;-81
2021/05/08 10:56:29;;;;;;;6.68;2.20;;;;;;;15.59;37.25;100677.34;5095931;28;20096;-81
2021/05/08 10:59:06;;;;;;;10.90;2.33;;;;;;;15.40;38.74;100675.41;5095603;28;20034;-80
2021/05/08 11:01:39;;;;;;;6.00;2.00;;;;;;;16.23;37.01;100677.53;5095918;28;20081;-81
2021/05/08 11:04:04;;;;;;;7.05;2.25;;;;;;;15.28;34.77;100673.25;5097786;28;20043;-81
2021/05/08 11:06:30;;;;;;;6.70;2.42;;;;;;;15.40;33.78;100670.19;5098211;28;20469;-82
2021/05/08 11:08:56;;;;;;;7.22;2.40;;;;;;;16.73;34.93;100674.63;5096357;28;20020;-81
2021/05/08 11:11:24;;;;;;;6.88;2.58;;;;;;;16.40;34.85;100668.16;5095786;28;20060;-81
2021/05/08 11:13:53;;;;;;;7.70;2.10;;;;;;;16.36;34.48;100664.81;5097994;28;20023;-82
2021/05/08 11:16:24;;;;;;;7.20;2.10;;;;;;;16.25;33.62;100661.75;5095814;28;20032;-81
2021/05/08 11:18:51;;;;;;;9.38;2.45;;;;;;;15.85;35.08;100655.47;5097008;28;20419;-82
2021/05/08 11:21:17;;;;;;;5.50;2.08;;;;;;;15.32;35.89;100653.06;5095381;28;20031;-82
2021/05/08 11:24:02;;;;;;;5.10;2.08;;;;;;;15.00;34.49;100660.31;5097423;28;20381;-82